MET'MAP v2.0
soon released !

Expected late october,
this new version will be
more efficient, smarter,
and hosted on a brand new
server x3 powerfull...
...and still free !


Not compatible ?
Try the mobile version !

LOG IN : | Subscribe | Disclaimer | Who is Orbifly ? |
ICAO code :
Legend : VFR Marginal VFR IFR Intensive IFR Very Intensive IFR
Visi :
Ceiling :
>= 8 km
>= 3000ft
5 to 8 km
1000 to 3000 ft
1500m to 5 km
500 to 1000 ft
800 to 1500m
200 to 500 ft
< 800m
< 200 ft

METAR - LFOR Chartres Champhol - 01 Jun 2020 21:54 UTC
Data Sources :     NOAA   


- Airport Elevation : 509 ft
- IATA code : QTJ
- No reported NOTAMs.


LFOR - Chartres Champhol

Latest METAR recorded : 0000/00/00 /0:0 0000/00/00 /0:0 0000/00/00 /0:0 0000/00/00 /0:1 2020/06/01 19:30 LFRU 011930Z AUTO 03007KT 17/11 Q1019
NO TAF


MET'MAP, your aeronautical weather chart ! - Copyright ORBIFLY December 2007

Programming & Development : Alexandra Zaïnal
Co-Developer : Marc-Olivier Méhu
Technical & hardware support : Manuel Goepfert
Concept & Financing : Baudouin d'Aumeries